createdAt,value
2018-12-08T00:03:30.170Z,80.21
2018-12-08T00:08:33.363Z,80.95
2018-12-08T00:13:36.539Z,80.86
2018-12-08T00:18:39.723Z,81.63
2018-12-08T00:23:42.909Z,81.84
2018-12-08T00:28:46.046Z,80.94
2018-12-08T00:33:51.769Z,80.49
2018-12-08T00:38:55.080Z,80.10
2018-12-08T00:43:58.322Z,77.08
2018-12-08T00:49:01.655Z,75.98
2018-12-08T00:54:07.504Z,76.81
2018-12-08T00:59:10.641Z,76.40
2018-12-08T01:04:13.994Z,74.85
2018-12-08T01:09:17.117Z,75.87
2018-12-08T01:14:20.257Z,75.02
2018-12-08T01:19:23.432Z,75.26
2018-12-08T01:24:26.590Z,74.79
2018-12-08T01:29:29.712Z,72.66
2018-12-08T01:34:32.867Z,74.27
2018-12-08T01:39:36.016Z,73.96
2018-12-08T01:44:39.124Z,75.03
2018-12-08T01:49:42.296Z,73.18
2018-12-08T01:54:45.400Z,71.62
2018-12-08T01:59:48.540Z,70.45
2018-12-08T02:04:51.693Z,68.68
2018-12-08T02:09:54.801Z,67.81
2018-12-08T02:14:57.953Z,67.20
2018-12-08T02:20:01.068Z,65.33
2018-12-08T02:25:04.673Z,65.50
2018-12-08T02:30:07.925Z,66.95
2018-12-08T02:35:11.217Z,67.15
2018-12-08T02:40:14.477Z,68.20
2018-12-08T02:45:17.611Z,68.41
2018-12-08T02:50:20.736Z,69.91
2018-12-08T02:55:23.853Z,70.50
2018-12-08T03:00:27.026Z,70.34
2018-12-08T03:05:30.161Z,71.49
2018-12-08T03:10:33.276Z,71.18
2018-12-08T03:20:54.135Z,71.71
2018-12-08T03:25:57.297Z,70.65
2018-12-08T03:31:00.461Z,70.97
2018-12-08T03:36:03.584Z,70.38
2018-12-08T03:41:06.857Z,71.19
2018-12-08T03:46:10.265Z,70.59
2018-12-08T03:51:13.443Z,70.15
2018-12-08T03:56:16.673Z,71.12
2018-12-08T04:01:19.810Z,70.84
2018-12-08T04:06:23.104Z,70.35
2018-12-08T04:11:26.384Z,71.07
2018-12-08T04:16:29.527Z,70.65
2018-12-08T04:21:32.693Z,71.14
2018-12-08T04:26:35.824Z,72.17
2018-12-08T04:31:38.941Z,71.25
2018-12-08T04:36:42.086Z,70.73
2018-12-08T04:41:45.241Z,71.12
2018-12-08T04:46:48.362Z,70.13
2018-12-08T04:51:51.532Z,70.63
2018-12-08T04:56:54.701Z,68.75
2018-12-08T05:01:57.963Z,69.48
2018-12-08T05:07:01.105Z,68.70
2018-12-08T05:12:04.297Z,69.13
2018-12-08T05:17:07.426Z,69.11
2018-12-08T05:22:10.565Z,68.77
2018-12-08T05:27:13.717Z,68.49
2018-12-08T05:32:16.910Z,68.64
2018-12-08T05:37:20.261Z,69.13
2018-12-08T05:42:23.484Z,68.12
2018-12-08T05:47:26.656Z,67.90
2018-12-08T05:52:29.836Z,68.11
2018-12-08T06:02:49.756Z,68.70
2018-12-08T06:07:52.901Z,68.07
2018-12-08T06:12:56.038Z,68.69
2018-12-08T06:17:59.185Z,68.97
2018-12-08T06:23:02.357Z,67.79
2018-12-08T06:28:28.170Z,68.63
2018-12-08T06:33:31.285Z,68.92
2018-12-08T06:38:34.444Z,69.18
2018-12-08T06:43:37.605Z,69.27
2018-12-08T06:48:40.727Z,68.99
2018-12-08T06:53:43.918Z,68.59
2018-12-08T06:58:47.088Z,68.84
2018-12-08T07:03:50.923Z,68.76
2018-12-08T07:08:54.114Z,68.30
2018-12-08T07:13:57.258Z,67.26
2018-12-08T07:19:00.397Z,68.28
2018-12-08T07:24:03.593Z,67.51
2018-12-08T07:29:06.785Z,67.42
2018-12-08T07:34:09.942Z,66.95
2018-12-08T07:39:13.145Z,66.33
2018-12-08T07:44:16.256Z,66.44
2018-12-08T07:49:19.429Z,66.34
2018-12-08T07:54:22.596Z,65.47
2018-12-08T07:59:25.788Z,65.56
2018-12-08T08:04:28.935Z,65.05
2018-12-08T08:09:32.286Z,65.90
2018-12-08T08:14:35.472Z,65.72
2018-12-08T08:19:38.743Z,65.21
2018-12-08T08:24:41.912Z,65.57
2018-12-08T08:29:45.054Z,64.74
2018-12-08T08:34:48.313Z,64.86
2018-12-08T08:39:51.505Z,64.04
2018-12-08T08:44:54.654Z,64.23
2018-12-08T08:49:57.916Z,63.92
2018-12-08T08:55:01.077Z,63.48
2018-12-08T09:00:07.505Z,62.71
2018-12-08T09:05:11.588Z,62.73
2018-12-08T09:10:14.746Z,62.79
2018-12-08T09:15:17.909Z,62.27
2018-12-08T09:20:21.103Z,62.94
2018-12-08T09:25:24.318Z,62.67
2018-12-08T09:30:27.597Z,62.70
2018-12-08T09:35:30.773Z,62.99
2018-12-08T09:40:34.047Z,62.99
2018-12-08T09:45:41.761Z,63.04
2018-12-08T09:50:42.451Z,62.38
2018-12-08T09:55:45.724Z,62.40
2018-12-08T10:00:48.987Z,61.96
2018-12-08T10:05:52.225Z,62.19
2018-12-08T10:10:55.392Z,62.88
2018-12-08T10:15:58.620Z,62.51
2018-12-08T10:21:01.789Z,62.31
2018-12-08T10:26:04.981Z,62.17
2018-12-08T10:31:08.162Z,62.72
2018-12-08T10:36:11.550Z,62.61
2018-12-08T10:41:14.782Z,64.15
2018-12-08T10:46:18.051Z,65.06
2018-12-08T10:56:36.998Z,65.25
2018-12-08T11:01:45.944Z,64.84
2018-12-08T11:06:49.163Z,67.40
2018-12-08T11:11:52.520Z,68.28
2018-12-08T11:16:55.771Z,68.93
2018-12-08T11:21:59.059Z,68.97
2018-12-08T11:27:02.292Z,67.22
2018-12-08T11:32:05.532Z,66.75
2018-12-08T11:37:08.794Z,67.01
2018-12-08T11:42:12.058Z,66.00
2018-12-08T11:47:15.328Z,66.31
2018-12-08T11:52:18.557Z,66.30
2018-12-08T11:57:21.741Z,66.58
2018-12-08T12:02:24.988Z,66.70
2018-12-08T12:07:28.294Z,66.05
2018-12-08T12:12:31.578Z,66.37
2018-12-08T12:17:35.599Z,65.95
2018-12-08T12:22:38.863Z,67.04
2018-12-08T12:27:42.479Z,68.07
2018-12-08T12:32:45.761Z,67.22
2018-12-08T12:37:49.024Z,67.29
2018-12-08T12:42:52.878Z,69.48
2018-12-08T12:47:56.200Z,71.09
2018-12-08T12:52:59.462Z,70.70
2018-12-08T12:58:02.621Z,70.54
2018-12-08T13:03:05.897Z,70.83
2018-12-08T13:08:09.122Z,70.57
2018-12-08T13:13:12.311Z,68.50
2018-12-08T13:18:16.098Z,67.99
2018-12-08T13:23:19.332Z,67.60
2018-12-08T13:28:22.603Z,67.48
2018-12-08T13:33:25.816Z,67.06
2018-12-08T13:38:29.186Z,69.32
2018-12-08T13:43:32.382Z,69.30
2018-12-08T13:48:35.744Z,70.61
2018-12-08T13:53:39.061Z,69.81
2018-12-08T13:58:42.281Z,69.66
2018-12-08T14:03:45.461Z,71.26
2018-12-08T14:08:49.674Z,73.28
2018-12-08T14:13:53.043Z,74.24
2018-12-08T14:18:56.208Z,75.43
2018-12-08T14:23:59.448Z,75.64
2018-12-08T14:29:02.648Z,76.58
2018-12-08T14:34:05.873Z,76.56
2018-12-08T14:39:09.311Z,75.81
2018-12-08T14:44:13.185Z,75.91
2018-12-08T14:49:16.953Z,76.57
2018-12-08T14:54:20.174Z,76.59
2018-12-08T14:59:23.391Z,75.93
2018-12-08T15:04:26.644Z,76.08
2018-12-08T15:09:29.877Z,76.08
2018-12-08T15:14:33.717Z,75.90
2018-12-08T15:19:36.937Z,75.28
2018-12-08T15:24:40.155Z,74.49
2018-12-08T15:29:43.416Z,74.11
2018-12-08T15:34:47.530Z,74.13
2018-12-08T15:39:50.839Z,75.04
2018-12-08T15:44:54.140Z,74.67
2018-12-08T15:49:57.390Z,74.57
2018-12-08T15:55:00.662Z,73.46
2018-12-08T16:00:06.714Z,73.34
2018-12-08T16:05:10.467Z,73.17
2018-12-08T16:10:13.774Z,73.22
2018-12-08T16:15:17.634Z,72.79
2018-12-08T16:20:21.061Z,73.13
2018-12-08T16:25:24.296Z,72.84
2018-12-08T16:30:27.546Z,72.31
2018-12-08T16:35:30.773Z,71.86
2018-12-08T16:40:34.096Z,72.43
2018-12-08T16:45:37.887Z,72.08
2018-12-08T16:50:41.144Z,71.62
2018-12-08T16:55:44.646Z,71.94
2018-12-08T17:00:48.261Z,71.55
2018-12-08T17:05:51.648Z,70.91
2018-12-08T17:10:54.819Z,71.56
2018-12-08T17:15:58.013Z,71.60
2018-12-08T17:21:01.353Z,71.62
2018-12-08T17:26:04.773Z,71.63
2018-12-08T17:31:08.069Z,71.56
2018-12-08T17:36:11.263Z,71.10
2018-12-08T17:41:14.586Z,71.18
2018-12-08T17:46:17.811Z,70.87
2018-12-08T17:51:21.035Z,71.09
2018-12-08T17:56:24.237Z,70.01
2018-12-08T18:01:27.624Z,70.35
2018-12-08T18:06:31.795Z,70.51
2018-12-08T18:11:35.005Z,71.10
2018-12-08T18:16:38.211Z,70.28
2018-12-08T18:21:41.490Z,70.40
2018-12-08T18:26:44.720Z,69.78
2018-12-08T18:31:47.908Z,70.03
2018-12-08T18:36:51.083Z,69.17
2018-12-08T18:41:54.403Z,69.28
2018-12-08T18:46:57.546Z,68.86
2018-12-08T18:52:00.791Z,68.72
2018-12-08T18:57:04.052Z,68.21
2018-12-08T19:02:07.269Z,68.63
2018-12-08T19:07:10.546Z,68.24
2018-12-08T19:12:14.597Z,69.31
2018-12-08T19:17:17.821Z,67.96
2018-12-08T19:22:21.883Z,68.69
2018-12-08T19:27:25.013Z,68.11
2018-12-08T19:32:28.258Z,67.76
2018-12-08T19:37:31.428Z,67.59
2018-12-08T19:42:34.662Z,66.78
2018-12-08T19:47:37.923Z,66.74
2018-12-08T19:52:41.680Z,66.41
2018-12-08T19:57:44.886Z,66.76
2018-12-08T20:02:48.112Z,66.81
2018-12-08T20:07:51.348Z,66.98
2018-12-08T20:12:54.597Z,67.23
2018-12-08T20:17:57.819Z,67.02
2018-12-08T20:23:01.645Z,67.62
2018-12-08T20:28:04.863Z,67.43
2018-12-08T20:33:08.016Z,67.68
2018-12-08T20:38:11.245Z,67.53
2018-12-08T20:48:30.846Z,67.54
2018-12-08T20:53:34.097Z,67.07
2018-12-08T20:58:37.453Z,67.21
2018-12-08T21:03:40.684Z,67.06
2018-12-08T21:08:44.016Z,67.25
2018-12-08T21:13:47.265Z,69.24
2018-12-08T21:18:50.541Z,70.34
2018-12-08T21:23:53.842Z,70.64
2018-12-08T21:28:57.112Z,71.20
2018-12-08T21:34:00.376Z,70.17
2018-12-08T21:39:05.860Z,70.80
2018-12-08T21:44:09.209Z,69.41
2018-12-08T21:49:12.392Z,69.91
2018-12-08T21:54:15.618Z,68.76
2018-12-08T21:59:18.807Z,68.98
2018-12-08T22:04:22.822Z,68.18
2018-12-08T22:09:26.207Z,68.50
2018-12-08T22:14:29.454Z,69.77
2018-12-08T22:25:04.869Z,73.78
2018-12-08T22:30:08.458Z,75.47
2018-12-08T22:35:11.842Z,76.70
2018-12-08T22:40:15.120Z,77.31
2018-12-08T22:45:18.343Z,76.75
2018-12-08T22:50:21.561Z,75.63
2018-12-08T22:55:24.774Z,76.35
2018-12-08T23:00:42.840Z,75.48
2018-12-08T23:05:46.053Z,75.08
2018-12-08T23:10:49.993Z,74.60
2018-12-08T23:15:54.725Z,74.08
2018-12-08T23:20:57.992Z,74.17
2018-12-08T23:26:01.296Z,73.48
2018-12-08T23:31:04.584Z,73.32
2018-12-08T23:36:07.717Z,72.94
2018-12-08T23:41:12.056Z,72.32
2018-12-08T23:46:15.192Z,75.61
2018-12-08T23:51:19.328Z,76.72
2018-12-08T23:56:22.483Z,78.03
